Swan Station, North Carolina
Current Conditions -  °F | °C
As of 8:15 AM on Wednesday 22 Oct 2014 (Local Time) from KTTA Reporting Station
Clear Clear  
Wind Chill: 51°   Ceiling: Unl
Heat Index: 51°   Visibility: 10mi
Dew Point: 40°   Wind: 9mph
Humidity: 67%   Direction: 300°WNW
Pressure: 29.99"   Gusts: NA
Location:  35.493°N, 79.1765°W
Report Text: KTTA 221215Z AUTO 30008KT 10SM CLR 11/05 A2999 RMK AO2 T01050045
Loading
Personal Weather Stations






























Interactive Weather Map
Tropical Storm Tracking
New forecast layout! Learn more

10-Day Weather Forecast

Advertisements
Track Severe Weather on mobile